createdAt,value
2022-10-18T00:35:25.352Z,95
2022-10-18T00:55:25.370Z,95.2
2022-10-18T01:15:25.325Z,95.4
2022-10-18T01:55:25.316Z,95.5
2022-10-18T02:15:25.299Z,95.7
2022-10-18T02:55:25.333Z,96
2022-10-18T03:15:25.319Z,96
2022-10-18T03:35:25.285Z,96
2022-10-18T03:55:25.275Z,96.2
2022-10-18T04:35:25.264Z,96.9
2022-10-18T04:55:25.288Z,97.2
2022-10-18T05:15:25.252Z,97.3
2022-10-18T05:35:25.259Z,97.5
2022-10-18T05:55:25.251Z,97.7
2022-10-18T06:15:25.246Z,97.8
2022-10-18T06:35:25.228Z,97.8
2022-10-18T06:55:25.249Z,97.8
2022-10-18T07:15:25.264Z,97.8
2022-10-18T07:35:25.214Z,97.7
2022-10-18T08:35:25.197Z,96.2
2022-10-18T08:55:25.223Z,95.2
2022-10-18T09:15:25.178Z,94.5
2022-10-18T09:35:25.189Z,94
2022-10-18T09:55:25.170Z,92.2
2022-10-18T10:15:26.131Z,89.8
2022-10-18T10:55:34.707Z,87.3
2022-10-18T11:15:25.133Z,83.9
2022-10-18T11:35:25.141Z,80
2022-10-18T11:55:27.585Z,75.4
2022-10-18T12:35:25.120Z,70.4
2022-10-18T12:55:25.113Z,68.4
2022-10-18T13:15:27.042Z,66.5
2022-10-18T13:35:25.106Z,58.8
2022-10-18T13:55:25.097Z,57.9
2022-10-18T14:15:25.071Z,58.3
2022-10-18T14:35:32.351Z,58.5
2022-10-18T14:55:25.068Z,57.4
2022-10-18T15:15:25.087Z,56.5
2022-10-18T15:35:26.055Z,56.4
2022-10-18T15:55:25.030Z,58.8
2022-10-18T16:15:25.037Z,62.4
2022-10-18T16:35:25.023Z,67
2022-10-18T16:55:25.081Z,73.3
2022-10-18T17:15:24.997Z,77.9
2022-10-18T17:55:25.033Z,84.1
2022-10-18T18:35:24.980Z,87
2022-10-18T18:55:24.978Z,88
2022-10-18T19:15:24.975Z,88.5
2022-10-18T19:35:24.962Z,89.4
2022-10-18T19:55:24.971Z,90.1
2022-10-18T20:15:24.971Z,90.5
2022-10-18T20:35:24.967Z,90.4
2022-10-18T21:15:24.974Z,90.9
2022-10-18T21:35:24.969Z,91.3
2022-10-18T21:55:24.971Z,92
2022-10-18T22:15:25.024Z,92.2
2022-10-18T22:35:24.964Z,92
2022-10-18T22:55:24.984Z,92.2
2022-10-18T23:15:24.974Z,92.5
2022-10-18T23:35:24.973Z,92.3
2022-10-18T23:55:24.973Z,92.7
